createdAt,value
2022-11-22T00:00:45.336Z,139.45
2022-11-22T00:03:18.936Z,146.75
2022-11-22T00:05:46.206Z,150.35
2022-11-22T00:08:13.546Z,149.57
2022-11-22T00:10:40.589Z,148.43
2022-11-22T00:13:08.160Z,137.88
2022-11-22T00:15:35.497Z,131.23
2022-11-22T00:18:02.926Z,144.32
2022-11-22T00:20:30.136Z,150.23
2022-11-22T00:22:58.474Z,151.43
2022-11-22T00:25:26.288Z,145.15
2022-11-22T00:27:54.219Z,145.68
2022-11-22T00:30:21.374Z,137.70
2022-11-22T00:32:49.132Z,140.20
2022-11-22T00:35:16.507Z,139.57
2022-11-22T00:37:44.210Z,145.43
2022-11-22T00:40:11.796Z,140.38
2022-11-22T00:42:39.214Z,140.27
2022-11-22T00:45:06.934Z,136.05
2022-11-22T00:47:34.352Z,132.00
2022-11-22T00:50:01.666Z,133.82
2022-11-22T00:52:29.084Z,146.77
2022-11-22T00:54:56.213Z,131.27
2022-11-22T00:57:23.749Z,138.95
2022-11-22T00:59:50.860Z,141.00
2022-11-22T01:02:18.423Z,135.73
2022-11-22T01:04:45.916Z,163.65
2022-11-22T01:07:13.514Z,157.05
2022-11-22T01:09:40.825Z,163.07
2022-11-22T01:12:08.406Z,149.52
2022-11-22T01:14:35.581Z,137.00
2022-11-22T01:17:03.130Z,137.65
2022-11-22T01:19:30.561Z,141.95
2022-11-22T01:21:58.222Z,136.23
2022-11-22T01:24:25.365Z,142.45
2022-11-22T01:26:52.747Z,135.55
2022-11-22T01:29:19.918Z,142.00
2022-11-22T01:31:47.316Z,134.73
2022-11-22T01:34:17.261Z,134.45
2022-11-22T01:36:44.838Z,137.00
2022-11-22T01:39:11.995Z,144.02
2022-11-22T01:41:39.521Z,144.75
2022-11-22T01:44:22.718Z,141.02
2022-11-22T01:47:12.474Z,138.63
2022-11-22T01:49:46.242Z,144.98
2022-11-22T01:52:20.703Z,151.60
2022-11-22T01:54:57.229Z,139.35
2022-11-22T01:57:30.071Z,145.05
2022-11-22T02:00:03.757Z,143.68
2022-11-22T02:02:34.559Z,132.00
2022-11-22T02:05:10.647Z,133.68
2022-11-22T02:08:02.123Z,151.10
2022-11-22T02:10:34.014Z,146.75
2022-11-22T02:13:02.363Z,149.30
2022-11-22T02:15:29.917Z,139.45
2022-11-22T02:17:58.095Z,141.75
2022-11-22T02:20:25.297Z,141.43
2022-11-22T02:23:04.604Z,151.07
2022-11-22T02:25:40.808Z,147.40
2022-11-22T02:28:13.864Z,137.02
2022-11-22T02:30:41.682Z,144.05
2022-11-22T02:33:09.510Z,133.00
2022-11-22T02:35:36.728Z,136.48
2022-11-22T02:38:07.898Z,140.07
2022-11-22T02:40:41.873Z,133.48
2022-11-22T02:43:13.679Z,139.48
2022-11-22T02:45:40.818Z,135.27
2022-11-22T02:48:13.870Z,144.20
2022-11-22T02:50:41.161Z,140.35
2022-11-22T02:53:09.625Z,149.18
2022-11-22T02:55:37.167Z,144.57
2022-11-22T02:58:06.046Z,141.82
2022-11-22T03:00:35.327Z,139.23
2022-11-22T03:03:02.959Z,144.45
2022-11-22T03:05:30.090Z,134.25
2022-11-22T03:07:57.519Z,130.43
2022-11-22T03:10:24.690Z,134.98
2022-11-22T03:12:52.204Z,160.65
2022-11-22T03:15:19.257Z,148.20
2022-11-22T03:17:46.788Z,135.48
2022-11-22T03:20:14.289Z,138.32
2022-11-22T03:22:41.878Z,143.40
2022-11-22T03:25:09.232Z,160.50
2022-11-22T03:27:36.676Z,171.60
2022-11-22T03:30:04.226Z,161.30
2022-11-22T03:32:31.708Z,169.35
2022-11-22T03:34:58.815Z,182.27
2022-11-22T03:37:26.287Z,158.63
2022-11-22T03:39:53.403Z,152.65
2022-11-22T03:42:22.156Z,150.27
2022-11-22T03:44:49.759Z,147.27
2022-11-22T03:47:17.313Z,147.45
2022-11-22T03:49:44.499Z,150.50
2022-11-22T03:52:12.118Z,145.85
2022-11-22T03:54:39.294Z,151.75
2022-11-22T03:57:06.949Z,138.38
2022-11-22T03:59:34.012Z,137.85
2022-11-22T04:02:01.412Z,161.20
2022-11-22T04:04:28.636Z,168.23
2022-11-22T04:06:56.147Z,171.43
2022-11-22T04:09:23.459Z,167.63
2022-11-22T04:11:50.948Z,167.00
2022-11-22T04:14:37.121Z,163.45
2022-11-22T04:17:04.549Z,163.10
2022-11-22T04:19:32.044Z,157.30
2022-11-22T04:21:59.629Z,157.98
2022-11-22T04:24:45.314Z,152.38
2022-11-22T04:27:12.696Z,141.02
2022-11-22T04:29:39.840Z,160.02
2022-11-22T04:32:27.338Z,151.38
2022-11-22T04:34:54.432Z,141.20
2022-11-22T04:37:22.025Z,155.13
2022-11-22T04:39:49.153Z,147.45
2022-11-22T04:42:35.010Z,173.32
2022-11-22T04:45:02.183Z,152.85
2022-11-22T04:47:50.479Z,137.70
2022-11-22T04:50:36.403Z,136.27
2022-11-22T04:53:03.893Z,140.55
2022-11-22T04:55:31.067Z,143.50
2022-11-22T04:58:00.228Z,137.75
2022-11-22T05:00:28.963Z,148.77
2022-11-22T05:02:57.611Z,152.93
2022-11-22T05:05:25.980Z,169.23
2022-11-22T05:07:53.538Z,146.93
2022-11-22T05:10:26.360Z,152.68
2022-11-22T05:12:56.004Z,142.45
2022-11-22T05:15:23.105Z,145.23
2022-11-22T05:17:50.484Z,152.13
2022-11-22T05:20:17.808Z,143.43
2022-11-22T05:23:03.919Z,153.95
2022-11-22T05:25:31.074Z,140.80
2022-11-22T05:27:58.545Z,148.38
2022-11-22T05:30:25.647Z,138.27
2022-11-22T05:32:55.038Z,142.25
2022-11-22T05:35:22.245Z,142.00
2022-11-22T05:37:49.647Z,142.30
2022-11-22T05:40:16.883Z,138.18
2022-11-22T05:42:44.340Z,147.32
2022-11-22T05:45:11.536Z,133.15
2022-11-22T05:47:38.980Z,141.32
2022-11-22T05:50:06.488Z,132.82
2022-11-22T05:52:34.384Z,135.95
2022-11-22T05:55:01.585Z,161.43
2022-11-22T05:57:29.013Z,158.07
2022-11-22T05:59:56.177Z,159.05
2022-11-22T06:02:23.703Z,175.70
2022-11-22T06:04:50.853Z,179.18
2022-11-22T06:07:18.337Z,181.90
2022-11-22T06:09:45.507Z,179.25
2022-11-22T06:12:12.976Z,166.82
2022-11-22T06:14:43.441Z,168.75
2022-11-22T06:17:11.206Z,189.65
2022-11-22T06:19:38.299Z,169.75
2022-11-22T06:22:06.230Z,172.60
2022-11-22T06:24:33.420Z,175.15
2022-11-22T06:27:00.982Z,174.32
2022-11-22T06:29:30.039Z,186.45
2022-11-22T06:32:02.005Z,195.05
2022-11-22T06:34:30.980Z,186.90
2022-11-22T06:36:58.421Z,206.77
2022-11-22T06:39:25.798Z,187.27
2022-11-22T06:41:53.226Z,188.18
2022-11-22T06:44:20.432Z,230.85
2022-11-22T06:46:47.887Z,251.68
2022-11-22T06:49:15.097Z,231.80
2022-11-22T06:51:42.744Z,216.57
2022-11-22T06:54:13.164Z,257.10
2022-11-22T06:56:41.121Z,227.15
2022-11-22T06:59:08.740Z,232.20
2022-11-22T07:01:37.645Z,200.15
2022-11-22T07:04:05.697Z,238.15
2022-11-22T07:06:38.728Z,195.25
2022-11-22T07:09:09.342Z,211.93
2022-11-22T07:11:37.530Z,232.50
2022-11-22T07:14:08.842Z,210.27
2022-11-22T07:16:38.556Z,242.25
2022-11-22T07:19:06.898Z,261.60
2022-11-22T07:21:35.174Z,238.52
2022-11-22T07:24:04.859Z,287.80
2022-11-22T07:26:32.315Z,245.75
2022-11-22T07:28:59.478Z,268.23
2022-11-22T07:31:26.942Z,321.98
2022-11-22T07:33:57.063Z,281.77
2022-11-22T07:36:24.596Z,251.48
2022-11-22T07:38:51.768Z,272.42
2022-11-22T07:41:19.919Z,293.95
2022-11-22T07:43:47.372Z,283.35
2022-11-22T07:46:29.372Z,268.60
2022-11-22T07:48:57.612Z,309.98
2022-11-22T07:51:25.303Z,256.10
2022-11-22T07:53:52.930Z,256.48
2022-11-22T07:56:20.439Z,299.02
2022-11-22T07:58:47.798Z,273.83
2022-11-22T08:01:17.308Z,328.67
2022-11-22T08:03:45.092Z,310.10
2022-11-22T08:06:13.869Z,381.35
2022-11-22T08:08:41.301Z,348.27
2022-11-22T08:11:10.112Z,365.50
2022-11-22T08:13:37.710Z,333.80
2022-11-22T08:16:09.080Z,321.65
2022-11-22T08:18:37.384Z,374.45
2022-11-22T08:21:09.240Z,393.02
2022-11-22T08:23:36.786Z,327.52
2022-11-22T08:26:04.712Z,319.52
2022-11-22T08:28:32.432Z,286.50
2022-11-22T08:31:05.003Z,261.63
2022-11-22T08:33:32.459Z,241.50
2022-11-22T08:36:00.387Z,234.80
2022-11-22T08:38:27.953Z,248.40
2022-11-22T08:40:55.326Z,240.02
2022-11-22T08:43:22.780Z,250.68
2022-11-22T08:45:57.969Z,217.35
2022-11-22T08:48:26.582Z,212.02
2022-11-22T08:50:57.826Z,220.30
2022-11-22T08:53:25.736Z,227.50
2022-11-22T08:55:53.571Z,204.73
2022-11-22T08:58:20.955Z,198.02
2022-11-22T09:00:48.525Z,196.50
2022-11-22T09:03:15.921Z,181.88
2022-11-22T09:08:36.100Z,180.77
2022-11-22T09:11:22.294Z,183.63
2022-11-22T09:13:49.494Z,183.07
2022-11-22T09:16:19.706Z,181.23
2022-11-22T09:18:47.950Z,186.70
2022-11-22T09:21:18.142Z,182.20
2022-11-22T09:26:19.363Z,162.90
2022-11-22T09:28:47.079Z,179.07
2022-11-22T09:31:17.475Z,160.10
2022-11-22T09:33:45.371Z,162.02
2022-11-22T09:36:15.665Z,162.60
2022-11-22T09:38:43.337Z,155.75
2022-11-22T09:41:20.159Z,158.98
2022-11-22T09:44:18.290Z,159.85
2022-11-22T09:46:57.010Z,140.80
2022-11-22T09:49:26.924Z,124.07
2022-11-22T09:52:03.706Z,110.35
2022-11-22T09:54:56.308Z,123.70
2022-11-22T09:57:33.771Z,105.75
2022-11-22T10:00:05.791Z,92.28
2022-11-22T10:02:59.835Z,98.10
2022-11-22T10:05:38.918Z,100.63
2022-11-22T10:08:32.328Z,102.85
2022-11-22T10:11:00.987Z,100.00
2022-11-22T10:13:31.733Z,102.03
2022-11-22T10:16:10.310Z,102.63
2022-11-22T10:19:12.053Z,102.72
2022-11-22T10:21:39.485Z,102.05
2022-11-22T10:24:10.857Z,106.20
2022-11-22T10:26:39.638Z,92.55
2022-11-22T10:29:41.057Z,107.55
2022-11-22T10:32:39.269Z,113.60
2022-11-22T10:35:10.108Z,92.50
2022-11-22T10:37:53.161Z,88.28
2022-11-22T10:41:11.932Z,94.43
2022-11-22T10:43:49.509Z,94.50
2022-11-22T10:46:57.133Z,94.60
2022-11-22T10:49:52.592Z,100.78
2022-11-22T10:53:05.070Z,83.60
2022-11-22T10:55:49.195Z,84.88
2022-11-22T10:58:23.204Z,92.63
2022-11-22T11:01:07.420Z,93.00
2022-11-22T11:03:40.985Z,102.20
2022-11-22T11:06:24.579Z,97.13
2022-11-22T11:09:54.854Z,97.57
2022-11-22T11:11:52.632Z,96.50
2022-11-22T11:14:29.679Z,95.85
2022-11-22T11:16:58.823Z,96.07
2022-11-22T11:19:30.786Z,90.95
2022-11-22T11:22:05.816Z,94.47
2022-11-22T11:24:38.373Z,99.32
2022-11-22T11:27:10.474Z,92.03
2022-11-22T11:29:46.993Z,99.85
2022-11-22T11:32:17.985Z,85.82
2022-11-22T11:34:56.903Z,86.53
2022-11-22T11:37:32.152Z,81.70
2022-11-22T11:40:00.871Z,92.72
2022-11-22T11:42:32.209Z,80.32
2022-11-22T11:45:24.944Z,84.00
2022-11-22T11:47:53.422Z,88.10
2022-11-22T11:50:25.113Z,86.93
2022-11-22T11:53:20.861Z,89.05
2022-11-22T11:55:49.340Z,76.60
2022-11-22T11:58:24.101Z,74.95
2022-11-22T12:00:53.516Z,77.53
2022-11-22T12:03:25.402Z,69.60
2022-11-22T12:06:12.936Z,72.15
2022-11-22T12:08:41.735Z,69.55
2022-11-22T12:11:16.426Z,65.28
2022-11-22T12:14:19.007Z,62.20
2022-11-22T12:16:43.350Z,70.35
2022-11-22T12:19:25.859Z,71.90
2022-11-22T12:21:59.190Z,71.05
2022-11-22T12:24:52.252Z,68.43
2022-11-22T12:27:23.350Z,72.97
2022-11-22T12:29:51.799Z,66.43
2022-11-22T12:32:27.547Z,68.63
2022-11-22T12:34:54.723Z,73.38
2022-11-22T12:37:29.135Z,72.25
2022-11-22T12:40:01.639Z,72.43
2022-11-22T12:42:44.265Z,75.53
2022-11-22T12:45:18.293Z,69.68
2022-11-22T12:47:48.193Z,73.57
2022-11-22T12:50:36.300Z,72.70
2022-11-22T12:53:17.835Z,67.93
2022-11-22T12:56:05.926Z,75.05
2022-11-22T12:58:41.734Z,75.60
2022-11-22T13:01:20.359Z,71.28
2022-11-22T13:04:00.623Z,76.13
2022-11-22T13:06:34.746Z,75.60
2022-11-22T13:09:07.143Z,76.00
2022-11-22T13:11:50.169Z,75.13
2022-11-22T13:14:22.824Z,73.75
2022-11-22T13:16:51.289Z,83.22
2022-11-22T13:19:22.199Z,69.60
2022-11-22T13:21:55.292Z,82.03
2022-11-22T13:24:38.065Z,74.45
2022-11-22T13:27:11.022Z,84.28
2022-11-22T13:29:41.606Z,80.60
2022-11-22T13:32:12.092Z,80.18
2022-11-22T13:35:04.349Z,87.05
2022-11-22T13:37:36.864Z,81.18
2022-11-22T13:40:12.398Z,80.72
2022-11-22T13:42:39.761Z,79.28
2022-11-22T13:45:24.935Z,81.13
2022-11-22T13:47:52.563Z,81.50
2022-11-22T13:50:35.135Z,84.55
2022-11-22T13:53:22.550Z,74.60
2022-11-22T13:55:50.968Z,86.95
2022-11-22T13:58:24.072Z,88.57
2022-11-22T14:00:53.766Z,88.35
2022-11-22T14:03:23.873Z,85.00
2022-11-22T14:05:54.813Z,89.75
2022-11-22T14:08:49.207Z,91.07
2022-11-22T14:11:50.786Z,88.90
2022-11-22T14:14:32.109Z,89.93
2022-11-22T14:17:24.430Z,92.13
2022-11-22T14:20:25.582Z,96.68
2022-11-22T14:23:05.103Z,90.03
2022-11-22T14:25:51.150Z,83.47
2022-11-22T14:28:40.983Z,78.85
2022-11-22T14:31:23.210Z,79.20
2022-11-22T14:34:17.013Z,76.40
2022-11-22T14:36:45.900Z,78.55
2022-11-22T14:39:44.315Z,68.40
2022-11-22T14:42:36.205Z,70.45
2022-11-22T14:45:12.556Z,62.80
2022-11-22T14:47:47.336Z,64.13
2022-11-22T14:50:26.351Z,61.28
2022-11-22T14:52:59.604Z,60.22
2022-11-22T14:55:34.715Z,57.83
2022-11-22T14:58:06.339Z,55.53
2022-11-22T15:01:13.073Z,52.33
2022-11-22T15:09:14.559Z,47.03
2022-11-22T15:09:23.223Z,43.33
2022-11-22T15:13:22.559Z,46.30
2022-11-22T15:59:19.199Z,60.55
2022-11-22T16:01:46.712Z,73.75
2022-11-22T16:04:29.646Z,65.10
2022-11-22T16:07:02.762Z,62.20
2022-11-22T16:09:34.151Z,61.50
2022-11-22T16:12:04.939Z,64.50
2022-11-22T16:14:50.222Z,60.33
2022-11-22T16:17:24.231Z,70.95
2022-11-22T16:19:52.176Z,90.00
2022-11-22T16:22:29.945Z,94.07
2022-11-22T16:25:43.102Z,93.70
2022-11-22T16:28:30.845Z,91.75
2022-11-22T16:31:02.174Z,89.22
2022-11-22T16:33:30.203Z,87.88
2022-11-22T16:36:00.406Z,91.32
2022-11-22T16:38:28.880Z,97.63
2022-11-22T16:40:59.216Z,101.57
2022-11-22T16:43:33.600Z,95.55
2022-11-22T16:46:03.086Z,90.80
2022-11-22T16:48:32.535Z,89.00
2022-11-22T16:51:06.831Z,100.43
2022-11-22T16:53:42.187Z,105.20
2022-11-22T16:56:23.832Z,103.63
2022-11-22T16:58:52.946Z,106.25
2022-11-22T17:01:24.162Z,108.80
2022-11-22T17:03:57.858Z,108.72
2022-11-22T17:06:27.540Z,97.10
2022-11-22T17:08:57.357Z,95.88
2022-11-22T17:11:27.642Z,103.55
2022-11-22T17:16:22.860Z,91.88
2022-11-22T17:18:50.562Z,85.53
2022-11-22T17:21:35.827Z,83.05
2022-11-22T17:24:07.176Z,86.40
2022-11-22T17:26:35.074Z,81.95
2022-11-22T17:29:02.520Z,83.30
2022-11-22T17:31:30.431Z,80.50
2022-11-22T17:33:58.806Z,81.85
2022-11-22T17:36:37.070Z,81.20
2022-11-22T17:39:07.147Z,80.22
2022-11-22T17:41:35.509Z,84.78
2022-11-22T17:44:03.777Z,77.15
2022-11-22T17:46:34.563Z,77.22
2022-11-22T17:49:02.374Z,82.57
2022-11-22T17:51:31.887Z,82.28
2022-11-22T17:53:59.479Z,88.80
2022-11-22T17:56:29.229Z,86.15
2022-11-22T17:58:56.842Z,91.00
2022-11-22T18:01:24.948Z,93.10
2022-11-22T18:03:52.398Z,101.55
2022-11-22T18:06:21.638Z,97.97
2022-11-22T18:08:49.974Z,96.23
2022-11-22T18:11:18.134Z,88.30
2022-11-22T18:13:45.672Z,107.65
2022-11-22T18:16:15.857Z,97.47
2022-11-22T18:18:58.929Z,102.85
2022-11-22T18:21:32.319Z,102.43
2022-11-22T18:24:00.663Z,94.85
2022-11-22T18:26:39.443Z,98.50
2022-11-22T18:31:57.334Z,97.10
2022-11-22T18:34:25.127Z,98.22
2022-11-22T18:36:56.386Z,98.65
2022-11-22T18:39:39.666Z,99.57
2022-11-22T18:42:12.911Z,90.85
2022-11-22T18:44:40.529Z,99.88
2022-11-22T18:47:08.692Z,92.93
2022-11-22T18:49:36.535Z,95.80
2022-11-22T18:52:04.845Z,95.57
2022-11-22T18:54:32.566Z,98.18
2022-11-22T18:57:01.280Z,93.07
2022-11-22T18:59:29.487Z,98.60
2022-11-22T19:01:57.202Z,100.35
2022-11-22T19:04:24.685Z,102.45
2022-11-22T19:06:59.797Z,92.30
2022-11-22T19:09:27.707Z,97.03
2022-11-22T19:11:58.723Z,94.93
2022-11-22T19:14:29.194Z,85.68
2022-11-22T19:16:57.717Z,88.60
2022-11-22T19:19:25.279Z,88.28
2022-11-22T19:21:55.835Z,87.57
2022-11-22T19:24:23.358Z,92.20
2022-11-22T19:26:51.637Z,78.75
2022-11-22T19:29:20.102Z,88.28
2022-11-22T19:31:48.161Z,79.45
2022-11-22T19:34:15.923Z,81.60
2022-11-22T19:36:44.602Z,87.93
2022-11-22T19:39:14.264Z,73.10
2022-11-22T19:41:43.735Z,78.70
2022-11-22T19:44:11.940Z,78.72
2022-11-22T19:46:41.549Z,70.70
2022-11-22T19:49:10.576Z,74.28
2022-11-22T19:51:39.164Z,73.85
2022-11-22T19:54:07.288Z,76.32
2022-11-22T19:56:37.569Z,71.22
2022-11-22T19:59:07.806Z,85.82
2022-11-22T20:01:35.855Z,73.78
2022-11-22T20:04:06.774Z,77.82
2022-11-22T20:06:36.811Z,80.35
2022-11-22T20:09:10.927Z,81.32
2022-11-22T20:11:40.520Z,70.00
2022-11-22T20:14:09.601Z,80.10
2022-11-22T20:16:41.318Z,72.00
2022-11-22T20:19:10.749Z,77.75
2022-11-22T20:21:39.724Z,76.00
2022-11-22T20:24:07.687Z,68.05
2022-11-22T20:26:35.925Z,76.25
2022-11-22T20:29:08.690Z,65.20
2022-11-22T20:31:38.647Z,71.15
2022-11-22T20:34:06.185Z,68.95
2022-11-22T20:36:35.102Z,66.93
2022-11-22T20:39:06.956Z,77.65
2022-11-22T20:41:37.438Z,74.93
2022-11-22T20:44:04.857Z,74.10
2022-11-22T20:46:36.213Z,73.43
2022-11-22T20:49:04.047Z,84.30
2022-11-22T20:51:32.164Z,79.10
2022-11-22T20:53:59.935Z,72.50
2022-11-22T20:56:28.230Z,73.13
2022-11-22T20:58:55.841Z,75.22
2022-11-22T21:01:26.149Z,76.65
2022-11-22T21:03:54.603Z,79.00
2022-11-22T21:06:24.559Z,72.72
2022-11-22T21:08:52.842Z,79.22
2022-11-22T21:11:23.276Z,76.15
2022-11-22T21:13:51.486Z,82.05
2022-11-22T21:16:24.470Z,79.30
2022-11-22T21:18:54.655Z,72.95
2022-11-22T21:21:24.984Z,70.40
2022-11-22T21:23:55.520Z,80.28
2022-11-22T21:26:25.044Z,75.43
2022-11-22T21:28:53.598Z,88.43
2022-11-22T21:31:22.533Z,73.38
2022-11-22T21:33:50.474Z,82.45
2022-11-22T21:36:19.238Z,81.03
2022-11-22T21:38:46.643Z,73.53
2022-11-22T21:41:38.758Z,81.18
2022-11-22T21:44:05.358Z,80.63
2022-11-22T21:46:32.842Z,83.20
2022-11-22T21:49:00.115Z,80.68
2022-11-22T21:51:27.947Z,76.47
2022-11-22T21:53:58.982Z,79.00
2022-11-22T21:56:27.360Z,74.88
2022-11-22T21:58:55.035Z,77.20
2022-11-22T22:01:23.466Z,87.03
2022-11-22T22:03:51.570Z,82.18
2022-11-22T22:06:19.719Z,83.55
2022-11-22T22:08:47.030Z,75.20
2022-11-22T22:11:14.832Z,83.35
2022-11-22T22:13:42.093Z,82.00
2022-11-22T22:16:19.038Z,93.53
2022-11-22T22:18:47.294Z,80.68
2022-11-22T22:21:17.050Z,84.97
2022-11-22T22:23:45.132Z,80.32
2022-11-22T22:26:16.638Z,83.60
2022-11-22T22:28:45.343Z,80.15
2022-11-22T22:31:21.731Z,90.22
2022-11-22T22:33:51.726Z,84.85
2022-11-22T22:36:19.465Z,84.10
2022-11-22T22:38:46.751Z,85.60
2022-11-22T22:41:14.751Z,87.57
2022-11-22T22:43:44.552Z,83.50
2022-11-22T22:46:12.018Z,85.68
2022-11-22T22:48:40.167Z,81.00
2022-11-22T22:51:25.172Z,78.72
2022-11-22T22:53:57.015Z,82.20
2022-11-22T22:56:25.441Z,83.25
2022-11-22T22:58:56.682Z,78.68
2022-11-22T23:01:28.740Z,82.72
2022-11-22T23:03:58.451Z,77.78
2022-11-22T23:06:28.541Z,77.68
2022-11-22T23:08:56.956Z,75.20
2022-11-22T23:11:45.827Z,88.18
2022-11-22T23:14:18.354Z,80.28
2022-11-22T23:16:46.141Z,82.18
2022-11-22T23:19:13.450Z,85.53
2022-11-22T23:21:41.056Z,91.75
2022-11-22T23:24:08.927Z,91.68
2022-11-22T23:26:36.870Z,86.72
2022-11-22T23:29:04.978Z,86.20
2022-11-22T23:31:32.567Z,74.68
2022-11-22T23:34:00.963Z,81.28
2022-11-22T23:36:29.001Z,80.05
2022-11-22T23:38:56.668Z,80.63
2022-11-22T23:41:25.446Z,78.30
2022-11-22T23:43:56.838Z,82.15
2022-11-22T23:46:27.544Z,77.00
2022-11-22T23:48:59.477Z,80.90
2022-11-22T23:51:29.019Z,78.03
2022-11-22T23:53:57.520Z,78.43
2022-11-22T23:56:26.345Z,75.20
2022-11-22T23:58:53.752Z,80.47
